createdAt,value
2023-05-06T00:00:44.018Z,1.90
2023-05-06T00:03:11.339Z,1.90
2023-05-06T00:05:38.568Z,2.00
2023-05-06T00:08:05.986Z,1.90
2023-05-06T00:10:33.171Z,2.20
2023-05-06T00:13:01.734Z,2.05
2023-05-06T00:15:30.878Z,1.80
2023-05-06T00:17:59.395Z,2.10
2023-05-06T00:20:27.155Z,1.67
2023-05-06T00:22:54.376Z,2.00
2023-05-06T00:25:21.681Z,2.10
2023-05-06T00:27:48.924Z,2.10
2023-05-06T00:30:17.456Z,2.20
2023-05-06T00:32:44.781Z,2.13
2023-05-06T00:35:12.050Z,1.95
2023-05-06T00:37:39.279Z,2.00
2023-05-06T00:40:07.192Z,1.80
2023-05-06T00:42:34.429Z,2.17
2023-05-06T00:45:01.609Z,1.95
2023-05-06T00:47:30.142Z,1.80
2023-05-06T00:49:57.359Z,1.85
2023-05-06T00:52:24.551Z,2.10
2023-05-06T00:54:51.816Z,1.88
2023-05-06T00:57:19.005Z,2.00
2023-05-06T00:59:46.189Z,2.00
2023-05-06T01:02:13.419Z,1.70
2023-05-06T01:04:42.452Z,2.00
2023-05-06T01:07:11.918Z,2.17
2023-05-06T01:09:40.079Z,2.03
2023-05-06T01:12:08.145Z,1.80
2023-05-06T01:14:37.346Z,1.80
2023-05-06T01:17:05.197Z,2.10
2023-05-06T01:19:46.574Z,1.90
2023-05-06T01:22:13.806Z,2.00
2023-05-06T01:24:42.751Z,2.03
2023-05-06T01:27:10.346Z,2.10
2023-05-06T01:29:38.402Z,2.03
2023-05-06T01:32:09.099Z,1.60
2023-05-06T01:34:37.854Z,1.80
2023-05-06T01:37:06.557Z,1.63
2023-05-06T01:39:33.763Z,2.00
2023-05-06T01:42:03.079Z,1.70
2023-05-06T01:44:33.161Z,2.13
2023-05-06T01:49:27.500Z,1.80
2023-05-06T01:51:54.751Z,1.90
2023-05-06T01:54:21.963Z,2.00
2023-05-06T01:56:49.181Z,1.73
2023-05-06T01:59:17.729Z,2.10
2023-05-06T02:01:44.951Z,2.08
2023-05-06T02:04:12.268Z,1.92
2023-05-06T02:06:39.450Z,2.20
2023-05-06T02:09:06.683Z,1.70
2023-05-06T02:11:33.896Z,2.00
2023-05-06T02:14:01.910Z,2.08
2023-05-06T02:16:30.574Z,2.08
2023-05-06T02:18:57.830Z,2.00
2023-05-06T02:21:25.032Z,2.05
2023-05-06T02:23:52.226Z,2.13
2023-05-06T02:26:19.475Z,2.30
2023-05-06T02:28:46.654Z,2.10
2023-05-06T02:31:14.059Z,1.90
2023-05-06T02:33:42.566Z,2.13
2023-05-06T02:36:09.875Z,1.90
2023-05-06T02:38:37.072Z,2.00
2023-05-06T02:41:04.382Z,1.95
2023-05-06T02:43:31.569Z,2.10
2023-05-06T02:45:58.870Z,1.90
2023-05-06T02:48:26.057Z,1.90
2023-05-06T02:50:54.581Z,2.00
2023-05-06T02:53:21.954Z,2.10
2023-05-06T02:55:49.201Z,2.05
2023-05-06T02:58:16.390Z,2.17
2023-05-06T03:00:43.692Z,2.05
2023-05-06T03:03:10.926Z,1.90
2023-05-06T03:05:38.153Z,2.33
2023-05-06T03:08:06.916Z,2.15
2023-05-06T03:10:34.162Z,2.13
2023-05-06T03:13:01.384Z,2.03
2023-05-06T03:15:28.653Z,2.20
2023-05-06T03:17:56.023Z,2.40
2023-05-06T03:20:23.433Z,2.38
2023-05-06T03:22:50.676Z,2.78
2023-05-06T03:25:19.441Z,2.40
2023-05-06T03:27:46.641Z,2.10
2023-05-06T03:30:14.291Z,2.30
2023-05-06T03:32:41.675Z,1.92
2023-05-06T03:35:11.496Z,2.00
2023-05-06T03:37:38.995Z,2.00
2023-05-06T03:40:07.472Z,2.20
2023-05-06T03:42:36.264Z,1.95
2023-05-06T03:45:03.508Z,2.10
2023-05-06T03:47:30.787Z,2.30
2023-05-06T03:49:58.051Z,2.05
2023-05-06T03:52:25.268Z,2.20
2023-05-06T03:54:52.454Z,2.47
2023-05-06T03:57:19.645Z,2.50
2023-05-06T03:59:48.173Z,2.22
2023-05-06T04:02:15.480Z,3.05
2023-05-06T04:04:42.724Z,3.45
2023-05-06T04:07:10.059Z,3.08
2023-05-06T04:09:37.331Z,3.15
2023-05-06T04:12:04.635Z,3.50
2023-05-06T04:14:32.153Z,3.97
2023-05-06T04:17:00.674Z,2.08
2023-05-06T04:19:27.891Z,2.90
2023-05-06T04:21:55.109Z,2.50
2023-05-06T04:24:22.884Z,2.78
2023-05-06T04:26:50.115Z,3.33
2023-05-06T04:29:17.346Z,3.03
2023-05-06T04:31:44.621Z,3.20
2023-05-06T04:34:13.217Z,3.88
2023-05-06T04:36:40.809Z,2.88
2023-05-06T04:39:08.748Z,2.65
2023-05-06T04:41:36.101Z,2.45
2023-05-06T04:44:03.545Z,2.97
2023-05-06T04:46:30.792Z,3.22
2023-05-06T04:48:58.252Z,2.30
2023-05-06T04:51:27.667Z,2.80
2023-05-06T04:53:54.874Z,2.50
2023-05-06T04:56:22.487Z,3.05
2023-05-06T04:58:49.675Z,3.67
2023-05-06T05:01:19.127Z,2.70
2023-05-06T05:03:46.448Z,2.58
2023-05-06T05:06:13.841Z,3.30
2023-05-06T05:08:42.372Z,2.40
2023-05-06T05:11:09.917Z,2.53
2023-05-06T05:13:37.148Z,2.38
2023-05-06T05:16:04.519Z,2.30
2023-05-06T05:18:31.731Z,2.20
2023-05-06T05:20:58.945Z,2.75
2023-05-06T05:23:26.172Z,2.33
2023-05-06T05:25:54.680Z,2.50
2023-05-06T05:28:21.887Z,2.15
2023-05-06T05:30:49.147Z,2.55
2023-05-06T05:33:16.501Z,2.20
2023-05-06T05:35:43.763Z,2.40
2023-05-06T05:38:12.825Z,2.10
2023-05-06T05:40:40.072Z,2.38
2023-05-06T05:43:08.630Z,2.30
2023-05-06T05:45:36.064Z,2.38
2023-05-06T05:48:03.841Z,2.33
2023-05-06T05:50:31.068Z,2.40
2023-05-06T05:52:58.313Z,2.30
2023-05-06T05:55:25.516Z,2.33
2023-05-06T05:57:52.729Z,2.50
2023-05-06T06:00:21.868Z,2.17
2023-05-06T06:02:49.192Z,1.92
2023-05-06T06:05:16.695Z,2.13
2023-05-06T06:07:43.920Z,2.58
2023-05-06T06:10:13.278Z,2.15
2023-05-06T06:12:40.552Z,2.00
2023-05-06T06:15:08.630Z,2.15
2023-05-06T06:17:37.465Z,2.25
2023-05-06T06:20:05.146Z,2.00
2023-05-06T06:22:32.371Z,2.00
2023-05-06T06:24:59.572Z,2.20
2023-05-06T06:27:26.800Z,1.85
2023-05-06T06:29:54.018Z,1.98
2023-05-06T06:32:21.304Z,1.98
2023-05-06T06:34:49.837Z,2.15
2023-05-06T06:37:17.024Z,1.92
2023-05-06T06:39:44.267Z,1.83
2023-05-06T06:42:11.603Z,1.88
2023-05-06T06:44:38.793Z,1.83
2023-05-06T06:47:06.059Z,2.10
2023-05-06T06:49:33.238Z,1.65
2023-05-06T06:52:01.735Z,1.95
2023-05-06T06:54:28.934Z,1.80
2023-05-06T06:56:57.225Z,1.80
2023-05-06T06:59:24.447Z,1.92
2023-05-06T07:01:51.722Z,1.92
2023-05-06T07:04:19.066Z,1.70
2023-05-06T07:06:46.350Z,2.17
2023-05-06T07:09:14.878Z,1.92
2023-05-06T07:11:42.083Z,1.80
2023-05-06T07:14:09.279Z,1.90
2023-05-06T07:16:36.520Z,1.73
2023-05-06T07:19:03.748Z,1.70
2023-05-06T07:21:32.137Z,1.95
2023-05-06T07:23:59.442Z,1.90
2023-05-06T07:26:27.978Z,2.03
2023-05-06T07:28:55.358Z,1.92
2023-05-06T07:31:22.596Z,1.60
2023-05-06T07:33:49.834Z,1.70
2023-05-06T07:36:17.169Z,1.77
2023-05-06T07:38:44.399Z,1.70
2023-05-06T07:41:11.611Z,1.70
2023-05-06T07:43:40.163Z,1.77
2023-05-06T07:46:07.469Z,1.55
2023-05-06T07:48:34.706Z,1.70
2023-05-06T07:51:02.020Z,1.65
2023-05-06T07:53:29.263Z,1.40
2023-05-06T07:56:01.701Z,1.70
2023-05-06T07:58:28.924Z,1.50
2023-05-06T08:00:57.419Z,1.50
2023-05-06T08:03:24.801Z,1.40
2023-05-06T08:05:52.150Z,1.60
2023-05-06T08:08:19.644Z,1.55
2023-05-06T08:10:46.947Z,1.27
2023-05-06T08:13:14.251Z,1.30
2023-05-06T08:15:41.530Z,1.30
2023-05-06T08:18:20.802Z,1.50
2023-05-06T08:20:49.379Z,1.40
2023-05-06T08:23:16.605Z,1.30
2023-05-06T08:25:43.815Z,1.48
2023-05-06T08:28:11.113Z,1.35
2023-05-06T08:30:38.361Z,1.13
2023-05-06T08:33:05.795Z,1.20
2023-05-06T08:35:34.335Z,1.30
2023-05-06T08:38:01.804Z,1.25
2023-05-06T08:40:29.334Z,1.05
2023-05-06T08:42:57.333Z,1.23
2023-05-06T08:45:24.792Z,1.20
2023-05-06T08:47:52.806Z,0.98
2023-05-06T08:50:20.336Z,1.08
2023-05-06T08:52:48.888Z,1.17
2023-05-06T08:55:16.136Z,1.27
2023-05-06T08:57:43.348Z,1.20
2023-05-06T09:00:11.546Z,1.02
2023-05-06T09:02:41.260Z,1.10
2023-05-06T09:05:10.784Z,1.20
2023-05-06T09:07:38.269Z,1.10
2023-05-06T09:10:10.207Z,0.90
2023-05-06T09:12:37.895Z,1.00
2023-05-06T09:15:05.526Z,1.00
2023-05-06T09:17:32.999Z,1.10
2023-05-06T09:20:00.340Z,0.80
2023-05-06T09:22:27.839Z,0.98
2023-05-06T09:24:57.319Z,0.90
2023-05-06T09:27:26.209Z,1.13
2023-05-06T09:30:00.542Z,1.25
2023-05-06T09:32:27.812Z,1.08
2023-05-06T09:34:55.087Z,1.00
2023-05-06T09:37:22.336Z,0.90
2023-05-06T09:39:49.836Z,0.90
2023-05-06T09:42:17.151Z,1.00
2023-05-06T09:44:45.927Z,0.88
2023-05-06T09:47:13.120Z,1.10
2023-05-06T09:49:40.364Z,1.00
2023-05-06T09:52:07.614Z,0.90
2023-05-06T09:54:34.892Z,1.10
2023-05-06T09:57:02.416Z,0.95
2023-05-06T09:59:29.660Z,1.10
2023-05-06T10:01:58.244Z,0.95
2023-05-06T10:04:26.546Z,1.00
2023-05-06T10:06:54.534Z,0.95
2023-05-06T10:09:22.038Z,0.98
2023-05-06T10:11:49.354Z,1.13
2023-05-06T10:14:16.638Z,0.95
2023-05-06T10:16:43.859Z,0.90
2023-05-06T10:19:12.413Z,0.90
2023-05-06T10:21:40.415Z,1.00
2023-05-06T10:24:08.960Z,1.10
2023-05-06T10:26:36.567Z,1.02
2023-05-06T10:29:04.601Z,0.95
2023-05-06T10:31:31.823Z,0.90
2023-05-06T10:33:59.174Z,1.00
2023-05-06T10:36:27.845Z,0.90
2023-05-06T10:38:56.380Z,1.08
2023-05-06T10:41:23.903Z,1.00
2023-05-06T10:43:56.474Z,1.00
2023-05-06T10:46:23.866Z,1.00
2023-05-06T10:49:10.930Z,0.90
2023-05-06T10:51:39.616Z,0.93
2023-05-06T10:54:07.101Z,1.10
2023-05-06T10:56:34.904Z,1.23
2023-05-06T10:59:02.577Z,1.25
2023-05-06T11:01:29.916Z,1.20
2023-05-06T11:03:57.331Z,0.90
2023-05-06T11:06:34.442Z,1.05
2023-05-06T11:09:04.068Z,1.00
2023-05-06T11:11:47.089Z,1.10
2023-05-06T11:14:14.311Z,0.90
2023-05-06T11:16:50.772Z,1.08
2023-05-06T11:19:19.450Z,1.00
2023-05-06T11:21:47.554Z,1.10
2023-05-06T11:24:22.624Z,1.02
2023-05-06T11:26:49.854Z,1.02
2023-05-06T11:29:17.105Z,0.98
2023-05-06T11:31:47.825Z,1.15
2023-05-06T11:34:18.684Z,1.30
2023-05-06T11:36:49.578Z,1.20
2023-05-06T11:39:18.075Z,1.00
2023-05-06T11:41:45.409Z,1.13
2023-05-06T11:46:33.169Z,1.00
2023-05-06T11:49:00.487Z,1.10
2023-05-06T11:51:27.744Z,1.08
2023-05-06T11:54:04.132Z,1.00
2023-05-06T11:56:32.659Z,1.13
2023-05-06T11:58:59.878Z,1.10
2023-05-06T12:01:27.196Z,1.08
2023-05-06T12:03:55.387Z,1.10
2023-05-06T12:06:32.486Z,1.05
2023-05-06T12:08:59.721Z,0.93
2023-05-06T12:11:26.930Z,0.95
2023-05-06T12:13:55.456Z,1.00
2023-05-06T12:16:23.615Z,1.00
2023-05-06T12:18:50.817Z,0.98
2023-05-06T12:21:22.055Z,1.10
2023-05-06T12:23:53.230Z,1.00
2023-05-06T12:26:21.062Z,1.02
2023-05-06T12:28:48.262Z,1.20
2023-05-06T12:31:20.648Z,1.05
2023-05-06T12:33:48.971Z,1.10
2023-05-06T12:36:16.208Z,1.08
2023-05-06T12:38:50.546Z,1.10
2023-05-06T12:41:17.750Z,1.13
2023-05-06T12:43:44.951Z,1.08
2023-05-06T12:46:12.327Z,1.10
2023-05-06T12:48:42.307Z,1.08
2023-05-06T12:51:18.981Z,1.10
2023-05-06T12:53:46.197Z,1.00
2023-05-06T12:56:13.408Z,1.30
2023-05-06T12:58:41.008Z,1.10
2023-05-06T13:01:08.447Z,1.13
2023-05-06T13:03:38.177Z,1.20
2023-05-06T13:08:34.766Z,1.20
2023-05-06T13:11:02.438Z,1.17
2023-05-06T13:13:29.686Z,1.17
2023-05-06T13:15:56.991Z,1.10
2023-05-06T13:18:24.199Z,1.17
2023-05-06T13:20:51.654Z,1.08
2023-05-06T13:23:19.249Z,1.20
2023-05-06T13:26:02.685Z,1.20
2023-05-06T13:28:31.963Z,1.15
2023-05-06T13:30:59.278Z,1.30
2023-05-06T13:33:26.599Z,1.30
2023-05-06T13:35:53.848Z,1.42
2023-05-06T13:38:21.104Z,1.20
2023-05-06T13:40:51.041Z,1.20
2023-05-06T13:43:18.290Z,1.27
2023-05-06T13:45:45.575Z,1.20
2023-05-06T13:48:12.828Z,1.13
2023-05-06T13:50:41.882Z,1.20
2023-05-06T13:53:09.083Z,1.23
2023-05-06T13:55:36.461Z,1.33
2023-05-06T13:58:05.415Z,1.20
2023-05-06T14:00:32.614Z,1.40
2023-05-06T14:02:59.896Z,1.20
2023-05-06T14:05:27.313Z,1.30
2023-05-06T14:07:54.666Z,1.30
2023-05-06T14:10:21.888Z,1.30
2023-05-06T14:12:49.168Z,1.08
2023-05-06T14:15:17.722Z,1.40
2023-05-06T14:17:44.927Z,1.65
2023-05-06T14:20:12.376Z,1.30
2023-05-06T14:22:40.583Z,1.20
2023-05-06T14:25:08.690Z,1.42
2023-05-06T14:27:36.685Z,1.20
2023-05-06T14:30:07.461Z,1.23
2023-05-06T14:32:37.446Z,1.20
2023-05-06T14:35:05.169Z,1.30
2023-05-06T14:37:32.392Z,1.20
2023-05-06T14:39:59.628Z,1.30
2023-05-06T14:42:26.846Z,1.60
2023-05-06T14:44:54.856Z,1.40
2023-05-06T14:47:22.373Z,1.40
2023-05-06T14:49:50.944Z,1.10
2023-05-06T14:52:18.177Z,1.30
2023-05-06T14:54:45.494Z,1.40
2023-05-06T14:57:12.719Z,1.40
2023-05-06T14:59:39.917Z,1.42
2023-05-06T15:02:08.007Z,1.23
2023-05-06T15:04:35.246Z,1.30
2023-05-06T15:07:03.847Z,1.52
2023-05-06T15:09:31.112Z,1.38
2023-05-06T15:11:58.340Z,1.40
2023-05-06T15:14:25.709Z,1.40
2023-05-06T15:16:53.400Z,1.30
2023-05-06T15:19:20.589Z,1.40
2023-05-06T15:21:48.444Z,1.38
2023-05-06T15:24:16.937Z,1.30
2023-05-06T15:26:44.149Z,1.23
2023-05-06T15:29:11.368Z,1.48
2023-05-06T15:31:40.740Z,1.30
2023-05-06T15:34:08.024Z,1.33
2023-05-06T15:36:35.275Z,1.40
2023-05-06T15:39:02.669Z,1.20
2023-05-06T15:41:31.754Z,1.50
2023-05-06T15:43:59.118Z,1.50
2023-05-06T15:46:26.427Z,1.70
2023-05-06T15:49:08.896Z,1.60
2023-05-06T15:51:40.917Z,1.50
2023-05-06T15:54:08.801Z,1.48
2023-05-06T15:56:41.148Z,1.70
2023-05-06T15:59:09.064Z,1.58
2023-05-06T16:02:18.882Z,1.80
2023-05-06T16:04:23.676Z,1.67
2023-05-06T16:06:51.097Z,1.60
2023-05-06T16:09:18.297Z,1.50
2023-05-06T16:11:46.960Z,1.48
2023-05-06T16:14:14.206Z,1.67
2023-05-06T16:16:41.584Z,1.48
2023-05-06T16:19:10.331Z,1.80
2023-05-06T16:21:37.606Z,1.60
2023-05-06T16:24:04.969Z,1.50
2023-05-06T16:26:32.196Z,1.65
2023-05-06T16:29:01.546Z,2.00
2023-05-06T16:31:28.828Z,1.70
2023-05-06T16:33:56.395Z,1.70
2023-05-06T16:36:23.613Z,1.75
2023-05-06T16:38:50.846Z,2.20
2023-05-06T16:41:18.072Z,1.77
2023-05-06T16:43:45.377Z,2.25
2023-05-06T16:46:14.568Z,2.03
2023-05-06T16:48:41.879Z,2.20
2023-05-06T16:51:10.237Z,2.00
2023-05-06T16:53:37.449Z,1.92
2023-05-06T16:56:04.736Z,2.10
2023-05-06T16:58:32.119Z,2.13
2023-05-06T17:00:59.417Z,2.20
2023-05-06T17:03:28.038Z,1.95
2023-05-06T17:05:55.381Z,2.00
2023-05-06T17:08:24.584Z,2.00
2023-05-06T17:10:53.977Z,2.25
2023-05-06T17:13:21.317Z,2.08
2023-05-06T17:15:48.528Z,1.90
2023-05-06T17:18:15.782Z,3.10
2023-05-06T17:20:55.156Z,1.95
2023-05-06T17:23:24.019Z,1.90
2023-05-06T17:25:51.439Z,2.22
2023-05-06T17:28:19.022Z,2.30
2023-05-06T17:30:46.576Z,2.33
2023-05-06T17:33:13.839Z,2.30
2023-05-06T17:35:41.117Z,2.10
2023-05-06T17:38:11.561Z,2.63
2023-05-06T17:40:38.788Z,2.63
2023-05-06T17:43:06.044Z,2.38
2023-05-06T17:45:33.264Z,2.50
2023-05-06T17:48:00.527Z,2.42
2023-05-06T17:50:27.755Z,2.30
2023-05-06T17:52:55.316Z,2.33
2023-05-06T17:55:24.137Z,2.72
2023-05-06T17:57:52.406Z,2.60
2023-05-06T18:00:19.911Z,2.65
2023-05-06T18:02:47.309Z,2.45
2023-05-06T18:05:14.735Z,2.55
2023-05-06T18:07:42.150Z,2.67
2023-05-06T18:10:10.276Z,2.70
2023-05-06T18:12:38.919Z,2.60
2023-05-06T18:15:06.913Z,2.65
2023-05-06T18:17:34.380Z,3.03
2023-05-06T18:20:01.664Z,2.80
2023-05-06T18:22:28.945Z,2.88
2023-05-06T18:24:56.152Z,3.00
2023-05-06T18:27:23.394Z,3.00
2023-05-06T18:29:51.973Z,2.63
2023-05-06T18:32:19.223Z,3.00
2023-05-06T18:34:46.431Z,3.13
2023-05-06T18:37:13.695Z,3.38
2023-05-06T18:39:41.437Z,2.70
2023-05-06T18:42:08.687Z,2.83
2023-05-06T18:44:35.910Z,2.70
2023-05-06T18:47:04.499Z,2.88
2023-05-06T18:49:31.809Z,3.22
2023-05-06T18:51:59.096Z,3.33
2023-05-06T18:54:26.359Z,3.05
2023-05-06T18:56:54.636Z,2.90
2023-05-06T18:59:22.197Z,2.90
2023-05-06T19:01:49.439Z,2.80
2023-05-06T19:04:18.007Z,3.05
2023-05-06T19:06:45.514Z,2.90
2023-05-06T19:09:12.722Z,2.90
2023-05-06T19:11:39.942Z,3.20
2023-05-06T19:14:07.184Z,3.33
2023-05-06T19:16:34.506Z,3.50
2023-05-06T19:19:06.756Z,3.53
2023-05-06T19:21:35.495Z,3.40
2023-05-06T19:24:02.769Z,3.78
2023-05-06T19:26:30.050Z,3.92
2023-05-06T19:28:57.298Z,3.50
2023-05-06T19:31:24.549Z,3.90
2023-05-06T19:33:51.808Z,3.30
2023-05-06T19:36:19.060Z,3.63
2023-05-06T19:38:47.654Z,3.85
2023-05-06T19:41:14.877Z,4.43
2023-05-06T19:43:42.713Z,3.53
2023-05-06T19:46:10.249Z,4.18
2023-05-06T19:48:38.794Z,4.00
2023-05-06T19:51:06.445Z,3.80
2023-05-06T19:53:33.756Z,4.43
2023-05-06T19:56:09.805Z,3.75
2023-05-06T19:58:37.014Z,5.20
2023-05-06T20:01:04.259Z,4.60
2023-05-06T20:03:31.730Z,4.43
2023-05-06T20:05:59.732Z,4.72
2023-05-06T20:08:27.040Z,5.00
2023-05-06T20:10:54.321Z,4.55
2023-05-06T20:13:22.953Z,4.47
2023-05-06T20:15:50.344Z,4.80
2023-05-06T20:18:17.613Z,4.90
2023-05-06T20:20:44.943Z,5.10
2023-05-06T20:23:12.163Z,4.47
2023-05-06T20:25:39.378Z,4.25
2023-05-06T20:28:06.626Z,4.93
2023-05-06T20:30:35.365Z,5.28
2023-05-06T20:33:02.781Z,4.53
2023-05-06T20:35:30.092Z,4.30
2023-05-06T20:37:57.307Z,4.55
2023-05-06T20:40:24.558Z,4.70
2023-05-06T20:42:51.794Z,5.05
2023-05-06T20:45:19.015Z,4.75
2023-05-06T20:47:47.615Z,4.60
2023-05-06T20:50:17.139Z,4.80
2023-05-06T20:52:45.720Z,4.90
2023-05-06T20:55:14.475Z,4.68
2023-05-06T20:57:44.793Z,4.93
2023-05-06T21:00:12.574Z,4.97
2023-05-06T21:02:42.004Z,5.32
2023-05-06T21:05:11.318Z,5.55
2023-05-06T21:07:38.944Z,4.70
2023-05-06T21:10:06.591Z,5.30
2023-05-06T21:12:33.917Z,5.65
2023-05-06T21:15:01.215Z,4.93
2023-05-06T21:17:28.898Z,5.85
2023-05-06T21:19:56.413Z,5.22
2023-05-06T21:22:24.976Z,5.43
2023-05-06T21:24:52.247Z,5.32
2023-05-06T21:27:19.467Z,5.38
2023-05-06T21:29:46.733Z,5.53
2023-05-06T21:32:14.032Z,4.90
2023-05-06T21:34:41.231Z,5.50
2023-05-06T21:37:08.486Z,5.78
2023-05-06T21:39:37.050Z,5.55
2023-05-06T21:42:04.308Z,5.28
2023-05-06T21:44:31.667Z,5.70
2023-05-06T21:46:58.889Z,5.75
2023-05-06T21:49:26.086Z,5.80
2023-05-06T21:51:53.307Z,5.45
2023-05-06T21:54:21.033Z,6.22
2023-05-06T21:56:49.807Z,5.55
2023-05-06T21:59:17.058Z,5.65
2023-05-06T22:01:44.323Z,6.10
2023-05-06T22:04:13.000Z,5.55
2023-05-06T22:06:40.968Z,5.73
2023-05-06T22:09:09.454Z,5.80
2023-05-06T22:11:37.984Z,6.28
2023-05-06T22:14:06.692Z,5.65
2023-05-06T22:16:35.165Z,6.10
2023-05-06T22:19:03.698Z,5.97
2023-05-06T22:21:31.411Z,6.18
2023-05-06T22:23:58.621Z,6.40
2023-05-06T22:26:27.873Z,6.20
2023-05-06T22:28:55.249Z,6.87
2023-05-06T22:31:24.487Z,6.47
2023-05-06T22:33:55.001Z,6.13
2023-05-06T22:36:22.228Z,6.18
2023-05-06T22:38:49.424Z,6.57
2023-05-06T22:41:17.980Z,6.25
2023-05-06T22:43:45.354Z,6.05
2023-05-06T22:46:12.644Z,6.07
2023-05-06T22:48:41.325Z,5.53
2023-05-06T22:51:08.578Z,5.72
2023-05-06T22:53:35.846Z,6.25
2023-05-06T22:56:03.068Z,6.43
2023-05-06T22:58:30.449Z,5.95
2023-05-06T23:00:57.776Z,5.93
2023-05-06T23:03:25.196Z,6.65
2023-05-06T23:05:53.792Z,6.20
2023-05-06T23:08:21.110Z,6.70
2023-05-06T23:10:48.402Z,7.35
2023-05-06T23:13:15.655Z,7.15
2023-05-06T23:15:42.976Z,7.00
2023-05-06T23:18:10.267Z,6.22
2023-05-06T23:20:37.554Z,6.68
2023-05-06T23:23:06.134Z,7.22
2023-05-06T23:25:33.335Z,6.80
2023-05-06T23:28:00.627Z,7.47
2023-05-06T23:30:27.934Z,7.20
2023-05-06T23:32:55.216Z,6.93
2023-05-06T23:35:22.472Z,6.88
2023-05-06T23:37:49.740Z,7.40
2023-05-06T23:40:18.309Z,6.97
2023-05-06T23:42:45.975Z,7.43
2023-05-06T23:45:13.487Z,7.45
2023-05-06T23:47:40.866Z,7.45
2023-05-06T23:50:08.870Z,7.20
2023-05-06T23:52:38.035Z,6.90
2023-05-06T23:55:06.056Z,7.80
2023-05-06T23:57:34.583Z,7.10
